createdAt,value
2022-11-22T00:02:34.988Z,5.00
2022-11-22T00:05:36.482Z,5.00
2022-11-22T00:08:37.975Z,4.99
2022-11-22T00:11:39.409Z,5.01
2022-11-22T00:14:40.881Z,4.99
2022-11-22T00:17:42.308Z,5.01
2022-11-22T00:20:43.700Z,5.04
2022-11-22T00:23:45.101Z,5.05
2022-11-22T00:26:46.518Z,5.03
2022-11-22T00:29:49.770Z,5.02
2022-11-22T00:32:51.238Z,5.14
2022-11-22T00:35:52.635Z,5.30
2022-11-22T00:38:54.045Z,5.43
2022-11-22T00:41:55.470Z,5.70
2022-11-22T00:44:56.890Z,5.81
2022-11-22T00:47:58.313Z,5.81
2022-11-22T00:50:59.793Z,5.77
2022-11-22T00:54:01.235Z,5.71
2022-11-22T00:57:02.630Z,5.77
2022-11-22T01:03:11.530Z,5.76
2022-11-22T01:06:12.941Z,5.69
2022-11-22T01:09:16.838Z,5.67
2022-11-22T01:12:18.249Z,5.63
2022-11-22T01:15:19.621Z,5.60
2022-11-22T01:18:21.087Z,5.67
2022-11-22T01:21:22.484Z,5.73
2022-11-22T01:24:23.882Z,5.77
2022-11-22T01:27:25.282Z,5.72
2022-11-22T01:30:26.707Z,5.80
2022-11-22T01:33:28.443Z,5.88
2022-11-22T01:36:30.487Z,5.83
2022-11-22T01:39:32.388Z,5.74
2022-11-22T01:42:44.116Z,5.64
2022-11-22T01:45:46.677Z,5.57
2022-11-22T01:48:52.219Z,5.64
2022-11-22T01:51:54.670Z,5.61
2022-11-22T01:54:57.246Z,5.61
2022-11-22T01:57:58.638Z,5.85
2022-11-22T02:01:00.027Z,5.80
2022-11-22T02:04:01.495Z,5.72
2022-11-22T02:07:08.399Z,5.82
2022-11-22T02:10:09.817Z,5.77
2022-11-22T02:13:11.209Z,5.70
2022-11-22T02:16:12.603Z,5.69
2022-11-22T02:19:15.400Z,5.52
2022-11-22T02:22:16.778Z,5.51
2022-11-22T02:25:29.421Z,5.45
2022-11-22T02:28:31.302Z,5.49
2022-11-22T02:31:33.599Z,5.61
2022-11-22T02:34:46.365Z,5.56
2022-11-22T02:37:48.676Z,5.46
2022-11-22T02:41:10.327Z,5.40
2022-11-22T02:44:11.830Z,5.35
2022-11-22T02:47:13.235Z,5.24
2022-11-22T02:50:14.645Z,5.18
2022-11-22T02:53:16.052Z,5.13
2022-11-22T02:56:17.525Z,5.07
2022-11-22T02:59:19.001Z,5.05
2022-11-22T03:02:20.387Z,5.06
2022-11-22T03:05:21.815Z,5.05
2022-11-22T03:08:23.259Z,5.01
2022-11-22T03:11:24.842Z,4.95
2022-11-22T03:14:26.288Z,4.94
2022-11-22T03:17:27.721Z,4.96
2022-11-22T03:20:29.266Z,4.94
2022-11-22T03:23:30.981Z,4.96
2022-11-22T03:26:32.402Z,4.93
2022-11-22T03:29:33.865Z,4.93
2022-11-22T03:32:35.306Z,4.91
2022-11-22T03:35:36.712Z,4.95
2022-11-22T03:38:38.123Z,4.95
2022-11-22T03:41:39.544Z,4.93
2022-11-22T03:44:40.931Z,4.92
2022-11-22T03:47:42.340Z,4.91
2022-11-22T03:50:43.763Z,4.94
2022-11-22T03:53:45.164Z,4.90
2022-11-22T03:56:46.609Z,4.90
2022-11-22T03:59:48.050Z,4.87
2022-11-22T04:02:49.523Z,4.84
2022-11-22T04:05:50.905Z,4.82
2022-11-22T04:08:52.354Z,4.77
2022-11-22T04:11:53.781Z,4.77
2022-11-22T04:15:21.486Z,4.75
2022-11-22T04:18:22.916Z,4.74
2022-11-22T04:21:36.744Z,4.73
2022-11-22T04:24:56.976Z,4.70
2022-11-22T04:27:58.344Z,4.69
2022-11-22T04:31:18.320Z,4.67
2022-11-22T04:34:19.684Z,4.65
2022-11-22T04:37:21.094Z,4.61
2022-11-22T04:40:22.592Z,4.56
2022-11-22T04:43:43.031Z,4.53
2022-11-22T04:46:44.372Z,4.49
2022-11-22T04:49:45.711Z,4.47
2022-11-22T04:52:56.163Z,4.38
2022-11-22T04:55:57.558Z,4.32
2022-11-22T04:58:58.909Z,4.29
2022-11-22T05:02:00.259Z,4.20
2022-11-22T05:05:01.627Z,4.20
2022-11-22T05:08:03.122Z,4.20
2022-11-22T05:11:04.439Z,4.19
2022-11-22T05:14:05.803Z,4.14
2022-11-22T05:17:10.323Z,4.11
2022-11-22T05:20:14.422Z,4.05
2022-11-22T05:23:34.471Z,4.01
2022-11-22T05:26:35.954Z,3.99
2022-11-22T05:29:37.318Z,3.94
2022-11-22T05:32:38.669Z,4.01
2022-11-22T05:35:40.032Z,3.99
2022-11-22T05:38:41.514Z,4.04
2022-11-22T05:41:55.887Z,4.04
2022-11-22T05:44:57.518Z,3.98
2022-11-22T05:47:58.899Z,3.96
2022-11-22T05:51:03.459Z,3.91
2022-11-22T05:54:04.833Z,3.89
2022-11-22T05:57:06.245Z,3.85
2022-11-22T06:00:07.892Z,3.82
2022-11-22T06:03:09.310Z,3.83
2022-11-22T06:06:10.649Z,3.82
2022-11-22T06:09:11.983Z,3.80
2022-11-22T06:12:13.420Z,3.82
2022-11-22T06:15:14.807Z,3.80
2022-11-22T06:18:16.245Z,3.83
2022-11-22T06:21:18.671Z,3.83
2022-11-22T06:24:20.174Z,3.85
2022-11-22T06:27:21.636Z,3.80
2022-11-22T06:30:23.101Z,3.80
2022-11-22T06:33:24.658Z,3.81
2022-11-22T06:36:26.922Z,3.83
2022-11-22T06:39:28.506Z,3.82
2022-11-22T06:42:30.067Z,3.84
2022-11-22T06:45:31.454Z,3.87
2022-11-22T06:48:33.538Z,3.90
2022-11-22T06:51:34.993Z,3.93
2022-11-22T06:54:36.429Z,4.01
2022-11-22T06:57:37.924Z,4.02
2022-11-22T07:03:58.548Z,4.02
2022-11-22T07:07:00.321Z,4.05
2022-11-22T07:10:01.727Z,4.09
2022-11-22T07:13:03.172Z,4.16
2022-11-22T07:16:05.221Z,4.18
2022-11-22T07:19:06.907Z,4.23
2022-11-22T07:22:08.339Z,4.26
2022-11-22T07:25:09.885Z,4.30
2022-11-22T07:28:11.328Z,4.45
2022-11-22T07:31:13.421Z,4.49
2022-11-22T07:34:14.816Z,4.50
2022-11-22T07:37:16.148Z,4.58
2022-11-22T07:40:17.750Z,4.64
2022-11-22T07:43:19.093Z,4.74
2022-11-22T07:46:24.721Z,4.83
2022-11-22T07:49:26.160Z,4.88
2022-11-22T07:52:27.545Z,4.92
2022-11-22T07:55:29.261Z,4.99
2022-11-22T07:58:30.777Z,5.01
2022-11-22T08:01:32.300Z,5.05
2022-11-22T08:04:33.713Z,5.05
2022-11-22T08:07:35.209Z,5.13
2022-11-22T08:10:36.645Z,5.15
2022-11-22T08:13:38.085Z,5.13
2022-11-22T08:16:39.499Z,5.16
2022-11-22T08:19:40.932Z,5.15
2022-11-22T08:22:42.376Z,5.18
2022-11-22T08:25:43.745Z,5.13
2022-11-22T08:28:45.176Z,5.15
2022-11-22T08:31:46.601Z,5.22
2022-11-22T08:34:47.990Z,5.28
2022-11-22T08:37:49.393Z,5.24
2022-11-22T08:40:50.971Z,5.28
2022-11-22T08:43:52.564Z,5.38
2022-11-22T08:46:53.979Z,5.45
2022-11-22T08:49:55.408Z,5.56
2022-11-22T08:52:56.800Z,5.59
2022-11-22T08:56:01.371Z,5.75
2022-11-22T08:59:02.803Z,5.72
2022-11-22T09:02:05.058Z,6.19
2022-11-22T09:05:06.621Z,6.14
2022-11-22T09:08:23.662Z,5.92
2022-11-22T09:11:25.295Z,5.84
2022-11-22T09:14:26.756Z,5.68
2022-11-22T09:17:28.173Z,5.61
2022-11-22T09:20:29.631Z,5.61
2022-11-22T09:23:31.124Z,5.41
2022-11-22T09:26:33.060Z,5.41
2022-11-22T09:29:34.558Z,5.50
2022-11-22T09:32:36.109Z,5.62
2022-11-22T09:35:37.507Z,5.57
2022-11-22T09:38:38.896Z,5.63
2022-11-22T09:41:40.330Z,5.60
2022-11-22T09:44:44.740Z,5.58
2022-11-22T09:48:10.107Z,5.65
2022-11-22T09:51:19.059Z,5.73
2022-11-22T09:54:22.729Z,5.71
2022-11-22T09:57:34.098Z,5.75
2022-11-22T10:00:35.660Z,5.82
2022-11-22T10:03:40.886Z,5.82
2022-11-22T10:06:43.180Z,5.73
2022-11-22T10:09:52.001Z,5.86
2022-11-22T10:12:53.472Z,5.88
2022-11-22T10:15:56.353Z,5.90
2022-11-22T10:19:16.668Z,5.95
2022-11-22T10:22:19.216Z,5.96
2022-11-22T10:25:21.975Z,6.00
2022-11-22T10:28:23.361Z,6.05
2022-11-22T10:31:26.478Z,6.10
2022-11-22T10:34:31.977Z,6.11
2022-11-22T10:37:33.359Z,6.07
2022-11-22T10:40:37.816Z,6.13
2022-11-22T10:43:51.396Z,5.95
2022-11-22T10:46:58.917Z,6.03
2022-11-22T10:50:11.382Z,6.09
2022-11-22T10:53:51.374Z,6.19
2022-11-22T10:56:58.851Z,5.99
2022-11-22T11:00:06.483Z,6.11
2022-11-22T11:03:17.029Z,6.15
2022-11-22T11:06:26.768Z,6.10
2022-11-22T11:13:05.183Z,6.08
2022-11-22T11:16:08.490Z,6.22
2022-11-22T11:19:19.845Z,6.18
2022-11-22T11:22:50.408Z,6.27
2022-11-22T11:25:46.450Z,6.21
2022-11-22T11:28:47.931Z,6.25
2022-11-22T11:31:49.912Z,6.18
2022-11-22T11:34:58.222Z,6.23
2022-11-22T11:37:59.674Z,6.37
2022-11-22T11:41:19.909Z,6.20
2022-11-22T11:44:26.410Z,6.33
2022-11-22T11:47:32.189Z,6.23
2022-11-22T11:50:33.605Z,6.26
2022-11-22T11:53:35.016Z,6.44
2022-11-22T11:57:12.109Z,6.51
2022-11-22T12:00:20.563Z,6.33
2022-11-22T12:03:22.021Z,6.56
2022-11-22T12:06:27.187Z,6.40
2022-11-22T12:09:29.977Z,6.43
2022-11-22T12:12:31.294Z,6.44
2022-11-22T12:15:38.783Z,6.29
2022-11-22T12:18:49.109Z,6.30
2022-11-22T12:21:50.546Z,6.28
2022-11-22T12:25:24.313Z,6.11
2022-11-22T12:28:18.389Z,6.31
2022-11-22T12:31:19.792Z,6.35
2022-11-22T12:34:21.938Z,6.38
2022-11-22T12:37:40.333Z,6.25
2022-11-22T12:40:42.225Z,6.35
2022-11-22T12:44:00.476Z,6.39
2022-11-22T12:47:05.303Z,6.46
2022-11-22T12:50:13.949Z,6.46
2022-11-22T12:53:16.380Z,6.44
2022-11-22T12:56:17.779Z,6.25
2022-11-22T12:59:19.140Z,6.44
2022-11-22T13:02:24.483Z,6.47
2022-11-22T13:05:30.510Z,6.46
2022-11-22T13:08:31.876Z,6.43
2022-11-22T13:11:50.385Z,6.46
2022-11-22T13:14:55.009Z,6.42
2022-11-22T13:17:56.445Z,6.37
2022-11-22T13:21:01.290Z,6.43
2022-11-22T13:24:21.471Z,6.38
2022-11-22T13:27:28.049Z,6.38
2022-11-22T13:30:29.726Z,6.42
2022-11-22T13:33:31.164Z,6.43
2022-11-22T13:36:32.504Z,6.37
2022-11-22T13:39:33.960Z,6.35
2022-11-22T13:42:35.346Z,6.40
2022-11-22T13:45:45.914Z,6.38
2022-11-22T13:48:53.361Z,6.32
2022-11-22T13:51:55.637Z,6.37
2022-11-22T13:54:57.939Z,6.36
2022-11-22T13:58:25.597Z,6.35
2022-11-22T14:01:36.443Z,6.35
2022-11-22T14:04:38.905Z,6.36
2022-11-22T14:07:40.384Z,6.27
2022-11-22T14:10:51.416Z,6.15
2022-11-22T14:15:53.172Z,6.00
2022-11-22T14:18:57.804Z,5.89
2022-11-22T14:21:59.365Z,5.78
2022-11-22T14:25:06.834Z,5.77
2022-11-22T14:28:11.542Z,5.74
2022-11-22T14:31:13.638Z,5.67
2022-11-22T14:34:33.562Z,5.66
2022-11-22T14:37:35.766Z,5.63
2022-11-22T14:40:40.515Z,5.56
2022-11-22T14:43:41.959Z,5.51
2022-11-22T14:46:53.328Z,5.50
2022-11-22T14:49:55.220Z,5.44
2022-11-22T14:53:01.027Z,5.49
2022-11-22T14:56:06.925Z,5.44
2022-11-22T14:59:26.788Z,5.40
2022-11-22T15:02:46.556Z,5.27
2022-11-22T15:09:11.395Z,5.24
2022-11-22T15:09:46.621Z,5.12
2022-11-22T15:13:15.063Z,5.08
2022-11-22T15:57:26.228Z,4.69
2022-11-22T16:00:28.655Z,4.68
2022-11-22T16:03:35.721Z,4.70
2022-11-22T16:06:37.126Z,4.69
2022-11-22T16:09:38.555Z,4.66
2022-11-22T16:12:40.040Z,4.66
2022-11-22T16:15:41.483Z,4.67
2022-11-22T16:18:43.367Z,4.69
2022-11-22T16:21:55.183Z,4.67
2022-11-22T16:25:15.511Z,4.70
2022-11-22T16:28:19.924Z,4.67
2022-11-22T16:31:25.104Z,4.68
2022-11-22T16:34:26.480Z,4.76
2022-11-22T16:37:30.723Z,4.79
2022-11-22T16:40:42.414Z,4.81
2022-11-22T16:43:43.855Z,4.85
2022-11-22T16:46:45.315Z,4.84
2022-11-22T16:49:46.832Z,4.84
2022-11-22T16:52:52.429Z,4.84
2022-11-22T16:55:53.851Z,4.82
2022-11-22T16:58:55.893Z,4.84
2022-11-22T17:01:57.292Z,4.82
2022-11-22T17:04:58.723Z,4.81
2022-11-22T17:08:00.232Z,4.78
2022-11-22T17:11:01.733Z,4.77
2022-11-22T17:14:03.192Z,4.69
2022-11-22T17:17:04.589Z,4.62
2022-11-22T17:20:06.347Z,4.59
2022-11-22T17:23:10.238Z,4.55
2022-11-22T17:26:11.653Z,4.52
2022-11-22T17:29:34.879Z,4.49
2022-11-22T17:32:35.271Z,4.55
2022-11-22T17:35:37.388Z,4.49
2022-11-22T17:38:38.782Z,4.47
2022-11-22T17:41:40.375Z,4.45
2022-11-22T17:44:41.790Z,4.49
2022-11-22T17:47:43.250Z,4.50
2022-11-22T17:50:44.647Z,4.55
2022-11-22T17:53:46.330Z,4.52
2022-11-22T17:56:47.839Z,4.47
2022-11-22T17:59:49.241Z,4.41
2022-11-22T18:02:50.759Z,4.44
2022-11-22T18:05:52.163Z,4.40
2022-11-22T18:08:53.562Z,4.34
2022-11-22T18:11:55.551Z,4.29
2022-11-22T18:14:56.974Z,4.21
2022-11-22T18:17:58.429Z,4.25
2022-11-22T18:20:59.862Z,4.29
2022-11-22T18:24:01.485Z,4.24
2022-11-22T18:27:02.926Z,4.25
2022-11-22T18:30:04.536Z,4.24
2022-11-22T18:33:05.949Z,4.27
2022-11-22T18:36:49.486Z,4.23
2022-11-22T18:39:34.041Z,4.21
2022-11-22T18:42:36.005Z,4.26
2022-11-22T18:45:39.148Z,4.25
2022-11-22T18:48:40.893Z,4.26
2022-11-22T18:51:42.334Z,4.27
2022-11-22T18:54:43.841Z,4.25
2022-11-22T18:57:45.290Z,4.25
2022-11-22T19:00:46.700Z,4.27
2022-11-22T19:03:48.241Z,4.27
2022-11-22T19:06:49.696Z,4.23
2022-11-22T19:09:51.146Z,4.25
2022-11-22T19:12:52.588Z,4.26
2022-11-22T19:15:54.009Z,4.24
2022-11-22T19:18:55.558Z,4.24
2022-11-22T19:21:56.998Z,4.25
2022-11-22T19:24:59.746Z,4.22
2022-11-22T19:28:01.318Z,4.24
2022-11-22T19:31:09.278Z,4.21
2022-11-22T19:34:10.710Z,4.23
2022-11-22T19:37:12.094Z,4.24
2022-11-22T19:40:14.054Z,4.22
2022-11-22T19:43:16.624Z,4.22
2022-11-22T19:46:19.938Z,4.23
2022-11-22T19:49:21.452Z,4.24
2022-11-22T19:52:22.844Z,4.22
2022-11-22T19:55:24.267Z,4.23
2022-11-22T19:58:25.779Z,4.19
2022-11-22T20:01:27.771Z,4.27
2022-11-22T20:04:29.567Z,4.36
2022-11-22T20:07:32.465Z,4.43
2022-11-22T20:10:33.930Z,4.48
2022-11-22T20:13:36.379Z,4.60
2022-11-22T20:16:39.242Z,4.63
2022-11-22T20:19:40.676Z,4.76
2022-11-22T20:22:42.090Z,4.81
2022-11-22T20:25:43.531Z,4.74
2022-11-22T20:28:45.084Z,4.68
2022-11-22T20:31:46.501Z,4.66
2022-11-22T20:34:47.901Z,4.67
2022-11-22T20:37:49.439Z,4.72
2022-11-22T20:40:55.536Z,4.74
2022-11-22T20:43:57.123Z,4.80
2022-11-22T20:46:58.503Z,4.84
2022-11-22T20:49:59.952Z,4.74
2022-11-22T20:53:01.488Z,4.70
2022-11-22T20:56:03.041Z,4.71
2022-11-22T20:59:04.711Z,4.69
2022-11-22T21:02:09.329Z,4.67
2022-11-22T21:05:12.169Z,4.62
2022-11-22T21:08:13.710Z,4.63
2022-11-22T21:11:15.772Z,4.78
2022-11-22T21:14:17.164Z,4.76
2022-11-22T21:17:39.704Z,4.81
2022-11-22T21:20:40.009Z,4.77
2022-11-22T21:23:43.146Z,4.73
2022-11-22T21:26:44.581Z,4.69
2022-11-22T21:29:46.042Z,4.61
2022-11-22T21:32:47.433Z,4.62
2022-11-22T21:35:48.839Z,4.58
2022-11-22T21:38:50.463Z,4.55
2022-11-22T21:41:51.951Z,4.45
2022-11-22T21:44:53.393Z,4.35
2022-11-22T21:47:54.781Z,4.25
2022-11-22T21:50:56.481Z,4.17
2022-11-22T21:53:58.646Z,4.11
2022-11-22T21:57:02.981Z,4.12
2022-11-22T22:00:05.117Z,4.13
2022-11-22T22:03:06.560Z,4.05
2022-11-22T22:06:07.928Z,4.03
2022-11-22T22:09:09.365Z,3.97
2022-11-22T22:12:10.772Z,3.96
2022-11-22T22:15:15.226Z,3.93
2022-11-22T22:18:16.606Z,3.90
2022-11-22T22:21:18.100Z,3.83
2022-11-22T22:24:19.499Z,3.80
2022-11-22T22:27:20.809Z,3.72
2022-11-22T22:30:23.055Z,3.68
2022-11-22T22:33:24.398Z,3.60
2022-11-22T22:36:26.037Z,3.67
2022-11-22T22:39:27.422Z,3.68
2022-11-22T22:42:28.826Z,3.67
2022-11-22T22:45:30.201Z,3.67
2022-11-22T22:48:31.707Z,3.70
2022-11-22T22:51:33.651Z,3.71
2022-11-22T22:54:35.919Z,3.74
2022-11-22T22:57:37.250Z,3.78
2022-11-22T23:00:38.577Z,3.76
2022-11-22T23:03:39.981Z,3.78
2022-11-22T23:06:41.434Z,3.82
2022-11-22T23:09:42.874Z,3.84
2022-11-22T23:12:44.208Z,3.87
2022-11-22T23:15:57.870Z,3.86
2022-11-22T23:19:00.068Z,3.87
2022-11-22T23:22:01.459Z,3.90
2022-11-22T23:25:02.821Z,3.90
2022-11-22T23:28:04.255Z,3.93
2022-11-22T23:31:09.646Z,3.92
2022-11-22T23:34:11.131Z,3.90
2022-11-22T23:37:12.521Z,3.92
2022-11-22T23:40:14.074Z,3.97
2022-11-22T23:43:15.559Z,3.92
2022-11-22T23:46:16.951Z,3.93
2022-11-22T23:49:18.295Z,3.93
2022-11-22T23:52:19.914Z,3.94
2022-11-22T23:55:21.296Z,3.92
2022-11-22T23:58:22.663Z,3.92
